sensor_id;sensor_type;location;lat;lon;timestamp;P1;durP1;ratioP1;P2;durP2;ratioP2
2850;SDS011;1433;49.976;8.342;2022-11-25T00:01:04;15.00;;;10.70;;
2850;SDS011;1433;49.976;8.342;2022-11-25T00:03:33;17.70;;;11.27;;
2850;SDS011;1433;49.976;8.342;2022-11-25T00:06:07;16.17;;;11.37;;
2850;SDS011;1433;49.976;8.342;2022-11-25T00:08:43;20.07;;;11.17;;
2850;SDS011;1433;49.976;8.342;2022-11-25T00:11:11;23.10;;;12.77;;
2850;SDS011;1433;49.976;8.342;2022-11-25T00:13:39;19.60;;;12.53;;
2850;SDS011;1433;49.976;8.342;2022-11-25T00:16:07;28.10;;;12.97;;
2850;SDS011;1433;49.976;8.342;2022-11-25T00:18:34;25.90;;;12.83;;
2850;SDS011;1433;49.976;8.342;2022-11-25T00:21:09;17.73;;;11.87;;
2850;SDS011;1433;49.976;8.342;2022-11-25T00:23:33;20.13;;;12.33;;
2850;SDS011;1433;49.976;8.342;2022-11-25T00:28:35;17.40;;;11.73;;
2850;SDS011;1433;49.976;8.342;2022-11-25T00:31:05;15.90;;;11.47;;
2850;SDS011;1433;49.976;8.342;2022-11-25T00:33:32;13.60;;;10.70;;
2850;SDS011;1433;49.976;8.342;2022-11-25T00:36:01;17.30;;;12.83;;
2850;SDS011;1433;49.976;8.342;2022-11-25T00:38:29;16.30;;;11.20;;
2850;SDS011;1433;49.976;8.342;2022-11-25T00:40:57;23.83;;;12.77;;
2850;SDS011;1433;49.976;8.342;2022-11-25T00:43:42;23.00;;;12.83;;
2850;SDS011;1433;49.976;8.342;2022-11-25T00:46:27;15.87;;;12.17;;
2850;SDS011;1433;49.976;8.342;2022-11-25T00:48:53;21.90;;;13.87;;
2850;SDS011;1433;49.976;8.342;2022-11-25T00:51:19;16.97;;;13.30;;
2850;SDS011;1433;49.976;8.342;2022-11-25T00:53:45;22.90;;;12.80;;
2850;SDS011;1433;49.976;8.342;2022-11-25T00:56:11;24.60;;;13.37;;
2850;SDS011;1433;49.976;8.342;2022-11-25T00:58:38;21.20;;;13.63;;
2850;SDS011;1433;49.976;8.342;2022-11-25T01:01:05;23.10;;;12.43;;
2850;SDS011;1433;49.976;8.342;2022-11-25T01:03:31;15.70;;;11.10;;
2850;SDS011;1433;49.976;8.342;2022-11-25T01:06:00;14.20;;;11.37;;
2850;SDS011;1433;49.976;8.342;2022-11-25T01:08:29;19.50;;;13.47;;
2850;SDS011;1433;49.976;8.342;2022-11-25T01:11:00;21.80;;;11.60;;
2850;SDS011;1433;49.976;8.342;2022-11-25T01:13:28;24.23;;;13.60;;
2850;SDS011;1433;49.976;8.342;2022-11-25T01:15:54;20.30;;;13.50;;
2850;SDS011;1433;49.976;8.342;2022-11-25T01:18:21;17.10;;;11.53;;
2850;SDS011;1433;49.976;8.342;2022-11-25T01:20:47;17.20;;;11.87;;
2850;SDS011;1433;49.976;8.342;2022-11-25T01:23:13;14.00;;;11.63;;
2850;SDS011;1433;49.976;8.342;2022-11-25T01:25:39;17.93;;;12.27;;
2850;SDS011;1433;49.976;8.342;2022-11-25T01:28:06;18.23;;;12.70;;
2850;SDS011;1433;49.976;8.342;2022-11-25T01:30:32;17.20;;;10.83;;
2850;SDS011;1433;49.976;8.342;2022-11-25T01:32:58;16.43;;;12.07;;
2850;SDS011;1433;49.976;8.342;2022-11-25T01:35:27;20.77;;;12.90;;
2850;SDS011;1433;49.976;8.342;2022-11-25T01:37:53;15.40;;;11.63;;
2850;SDS011;1433;49.976;8.342;2022-11-25T01:40:21;22.70;;;14.03;;
2850;SDS011;1433;49.976;8.342;2022-11-25T01:42:48;22.10;;;11.97;;
2850;SDS011;1433;49.976;8.342;2022-11-25T01:47:55;17.93;;;14.00;;
2850;SDS011;1433;49.976;8.342;2022-11-25T01:50:22;13.43;;;10.83;;
2850;SDS011;1433;49.976;8.342;2022-11-25T01:52:51;19.90;;;11.00;;
2850;SDS011;1433;49.976;8.342;2022-11-25T01:55:21;18.03;;;13.37;;
2850;SDS011;1433;49.976;8.342;2022-11-25T01:57:57;17.40;;;12.30;;
2850;SDS011;1433;49.976;8.342;2022-11-25T02:00:25;14.40;;;12.67;;
2850;SDS011;1433;49.976;8.342;2022-11-25T02:02:52;20.60;;;13.37;;
2850;SDS011;1433;49.976;8.342;2022-11-25T02:05:21;16.93;;;12.30;;
2850;SDS011;1433;49.976;8.342;2022-11-25T02:07:53;19.57;;;11.90;;
2850;SDS011;1433;49.976;8.342;2022-11-25T02:10:24;21.47;;;13.20;;
2850;SDS011;1433;49.976;8.342;2022-11-25T02:12:53;22.23;;;14.10;;
2850;SDS011;1433;49.976;8.342;2022-11-25T02:15:20;28.07;;;13.80;;
2850;SDS011;1433;49.976;8.342;2022-11-25T02:17:46;22.80;;;12.97;;
2850;SDS011;1433;49.976;8.342;2022-11-25T02:20:14;16.27;;;13.17;;
2850;SDS011;1433;49.976;8.342;2022-11-25T02:25:41;19.27;;;13.33;;
2850;SDS011;1433;49.976;8.342;2022-11-25T02:30:43;24.17;;;13.83;;
2850;SDS011;1433;49.976;8.342;2022-11-25T02:33:10;17.50;;;12.90;;
2850;SDS011;1433;49.976;8.342;2022-11-25T02:35:38;19.93;;;13.17;;
2850;SDS011;1433;49.976;8.342;2022-11-25T02:38:13;26.13;;;14.53;;
2850;SDS011;1433;49.976;8.342;2022-11-25T02:43:13;18.00;;;13.00;;
2850;SDS011;1433;49.976;8.342;2022-11-25T02:45:46;18.90;;;13.73;;
2850;SDS011;1433;49.976;8.342;2022-11-25T02:48:19;20.00;;;12.57;;
2850;SDS011;1433;49.976;8.342;2022-11-25T02:50:46;21.20;;;13.90;;
2850;SDS011;1433;49.976;8.342;2022-11-25T02:53:13;17.60;;;13.70;;
2850;SDS011;1433;49.976;8.342;2022-11-25T02:55:39;19.27;;;14.03;;
2850;SDS011;1433;49.976;8.342;2022-11-25T02:58:05;18.77;;;12.90;;
2850;SDS011;1433;49.976;8.342;2022-11-25T03:00:32;20.10;;;15.13;;
2850;SDS011;1433;49.976;8.342;2022-11-25T03:02:59;15.47;;;12.20;;
2850;SDS011;1433;49.976;8.342;2022-11-25T03:05:25;19.43;;;12.47;;
2850;SDS011;1433;49.976;8.342;2022-11-25T03:07:51;27.57;;;15.37;;
2850;SDS011;1433;49.976;8.342;2022-11-25T03:10:19;15.93;;;12.53;;
2850;SDS011;1433;49.976;8.342;2022-11-25T03:12:47;14.23;;;12.30;;
2850;SDS011;1433;49.976;8.342;2022-11-25T03:15:13;18.63;;;13.77;;
2850;SDS011;1433;49.976;8.342;2022-11-25T03:17:40;17.53;;;13.20;;
2850;SDS011;1433;49.976;8.342;2022-11-25T03:20:08;15.37;;;12.80;;
2850;SDS011;1433;49.976;8.342;2022-11-25T03:22:35;20.97;;;13.17;;
2850;SDS011;1433;49.976;8.342;2022-11-25T03:25:02;18.60;;;14.50;;
2850;SDS011;1433;49.976;8.342;2022-11-25T03:27:29;16.70;;;12.80;;
2850;SDS011;1433;49.976;8.342;2022-11-25T03:29:55;32.77;;;13.67;;
2850;SDS011;1433;49.976;8.342;2022-11-25T03:32:22;20.60;;;13.27;;
2850;SDS011;1433;49.976;8.342;2022-11-25T03:34:48;20.77;;;14.23;;
2850;SDS011;1433;49.976;8.342;2022-11-25T03:37:14;16.23;;;13.73;;
2850;SDS011;1433;49.976;8.342;2022-11-25T03:39:40;17.10;;;12.83;;
2850;SDS011;1433;49.976;8.342;2022-11-25T03:42:08;18.07;;;12.80;;
2850;SDS011;1433;49.976;8.342;2022-11-25T03:44:34;15.43;;;12.83;;
2850;SDS011;1433;49.976;8.342;2022-11-25T03:47:00;18.70;;;12.80;;
2850;SDS011;1433;49.976;8.342;2022-11-25T03:49:26;19.87;;;13.80;;
2850;SDS011;1433;49.976;8.342;2022-11-25T03:51:53;23.90;;;14.27;;
2850;SDS011;1433;49.976;8.342;2022-11-25T03:54:19;18.20;;;12.57;;
2850;SDS011;1433;49.976;8.342;2022-11-25T03:56:47;19.73;;;14.07;;
2850;SDS011;1433;49.976;8.342;2022-11-25T03:59:13;20.40;;;13.03;;
2850;SDS011;1433;49.976;8.342;2022-11-25T04:01:40;17.53;;;12.70;;
2850;SDS011;1433;49.976;8.342;2022-11-25T04:04:06;17.50;;;12.03;;
2850;SDS011;1433;49.976;8.342;2022-11-25T04:06:32;23.47;;;12.20;;
2850;SDS011;1433;49.976;8.342;2022-11-25T04:08:59;16.07;;;12.43;;
2850;SDS011;1433;49.976;8.342;2022-11-25T04:11:25;14.90;;;12.67;;
2850;SDS011;1433;49.976;8.342;2022-11-25T04:13:54;14.80;;;12.23;;
2850;SDS011;1433;49.976;8.342;2022-11-25T04:16:24;14.60;;;11.87;;
2850;SDS011;1433;49.976;8.342;2022-11-25T04:18:50;18.30;;;11.50;;
2850;SDS011;1433;49.976;8.342;2022-11-25T04:21:17;17.43;;;13.60;;
2850;SDS011;1433;49.976;8.342;2022-11-25T04:23:44;16.77;;;14.10;;
2850;SDS011;1433;49.976;8.342;2022-11-25T04:26:10;17.87;;;13.37;;
2850;SDS011;1433;49.976;8.342;2022-11-25T04:28:38;15.60;;;12.50;;
2850;SDS011;1433;49.976;8.342;2022-11-25T04:31:05;18.57;;;14.30;;
2850;SDS011;1433;49.976;8.342;2022-11-25T04:33:33;20.23;;;15.90;;
2850;SDS011;1433;49.976;8.342;2022-11-25T04:35:59;16.90;;;12.30;;
2850;SDS011;1433;49.976;8.342;2022-11-25T04:38:26;19.60;;;13.27;;
2850;SDS011;1433;49.976;8.342;2022-11-25T04:40:52;23.03;;;14.80;;
2850;SDS011;1433;49.976;8.342;2022-11-25T04:43:20;17.70;;;13.23;;
2850;SDS011;1433;49.976;8.342;2022-11-25T04:45:51;15.50;;;12.40;;
2850;SDS011;1433;49.976;8.342;2022-11-25T04:48:18;16.07;;;13.53;;
2850;SDS011;1433;49.976;8.342;2022-11-25T04:50:44;21.00;;;15.30;;
2850;SDS011;1433;49.976;8.342;2022-11-25T04:53:12;19.50;;;14.33;;
2850;SDS011;1433;49.976;8.342;2022-11-25T04:55:38;20.33;;;14.00;;
2850;SDS011;1433;49.976;8.342;2022-11-25T04:58:08;17.60;;;13.50;;
2850;SDS011;1433;49.976;8.342;2022-11-25T05:00:35;18.87;;;14.07;;
2850;SDS011;1433;49.976;8.342;2022-11-25T05:03:02;17.73;;;12.17;;
2850;SDS011;1433;49.976;8.342;2022-11-25T05:05:31;20.00;;;12.60;;
2850;SDS011;1433;49.976;8.342;2022-11-25T05:07:57;22.43;;;13.33;;
2850;SDS011;1433;49.976;8.342;2022-11-25T05:10:24;14.67;;;11.53;;
2850;SDS011;1433;49.976;8.342;2022-11-25T05:12:50;18.60;;;12.23;;
2850;SDS011;1433;49.976;8.342;2022-11-25T05:15:18;20.00;;;12.20;;
2850;SDS011;1433;49.976;8.342;2022-11-25T05:17:45;15.97;;;13.00;;
2850;SDS011;1433;49.976;8.342;2022-11-25T05:20:12;20.80;;;12.73;;
2850;SDS011;1433;49.976;8.342;2022-11-25T05:25:16;17.23;;;12.07;;
2850;SDS011;1433;49.976;8.342;2022-11-25T05:27:44;20.50;;;13.03;;
2850;SDS011;1433;49.976;8.342;2022-11-25T05:30:12;15.80;;;11.90;;
2850;SDS011;1433;49.976;8.342;2022-11-25T05:32:39;24.17;;;13.83;;
2850;SDS011;1433;49.976;8.342;2022-11-25T05:35:07;18.10;;;12.70;;
2850;SDS011;1433;49.976;8.342;2022-11-25T05:37:33;18.67;;;12.57;;
2850;SDS011;1433;49.976;8.342;2022-11-25T05:40:01;15.83;;;11.20;;
2850;SDS011;1433;49.976;8.342;2022-11-25T05:42:32;18.00;;;12.27;;
2850;SDS011;1433;49.976;8.342;2022-11-25T05:45:00;14.60;;;11.93;;
2850;SDS011;1433;49.976;8.342;2022-11-25T05:47:27;24.93;;;14.43;;
2850;SDS011;1433;49.976;8.342;2022-11-25T05:49:53;16.40;;;13.30;;
2850;SDS011;1433;49.976;8.342;2022-11-25T05:52:20;22.30;;;12.67;;
2850;SDS011;1433;49.976;8.342;2022-11-25T05:54:50;20.40;;;12.40;;
2850;SDS011;1433;49.976;8.342;2022-11-25T05:57:17;24.43;;;14.43;;
2850;SDS011;1433;49.976;8.342;2022-11-25T05:59:48;23.03;;;16.00;;
2850;SDS011;1433;49.976;8.342;2022-11-25T06:02:16;24.00;;;14.87;;
2850;SDS011;1433;49.976;8.342;2022-11-25T06:04:42;16.93;;;13.97;;
2850;SDS011;1433;49.976;8.342;2022-11-25T06:07:08;20.13;;;12.50;;
2850;SDS011;1433;49.976;8.342;2022-11-25T06:09:36;16.70;;;13.87;;
2850;SDS011;1433;49.976;8.342;2022-11-25T06:12:05;26.77;;;14.33;;
2850;SDS011;1433;49.976;8.342;2022-11-25T06:14:33;24.93;;;15.00;;
2850;SDS011;1433;49.976;8.342;2022-11-25T06:16:59;17.50;;;13.27;;
2850;SDS011;1433;49.976;8.342;2022-11-25T06:19:30;12.50;;;10.23;;
2850;SDS011;1433;49.976;8.342;2022-11-25T06:21:57;24.63;;;15.70;;
2850;SDS011;1433;49.976;8.342;2022-11-25T06:24:24;25.07;;;15.70;;
2850;SDS011;1433;49.976;8.342;2022-11-25T06:26:52;18.50;;;13.23;;
2850;SDS011;1433;49.976;8.342;2022-11-25T06:29:19;25.77;;;12.63;;
2850;SDS011;1433;49.976;8.342;2022-11-25T06:31:49;18.70;;;10.90;;
2850;SDS011;1433;49.976;8.342;2022-11-25T06:34:34;18.57;;;12.17;;
2850;SDS011;1433;49.976;8.342;2022-11-25T06:37:03;23.80;;;12.23;;
2850;SDS011;1433;49.976;8.342;2022-11-25T06:39:29;12.30;;;10.60;;
2850;SDS011;1433;49.976;8.342;2022-11-25T06:41:55;18.20;;;10.53;;
2850;SDS011;1433;49.976;8.342;2022-11-25T06:44:22;14.43;;;10.90;;
2850;SDS011;1433;49.976;8.342;2022-11-25T06:46:48;15.60;;;10.80;;
2850;SDS011;1433;49.976;8.342;2022-11-25T06:49:14;13.40;;;10.07;;
2850;SDS011;1433;49.976;8.342;2022-11-25T06:51:40;15.10;;;10.00;;
2850;SDS011;1433;49.976;8.342;2022-11-25T06:54:07;15.93;;;10.20;;
2850;SDS011;1433;49.976;8.342;2022-11-25T06:56:35;16.60;;;10.40;;
2850;SDS011;1433;49.976;8.342;2022-11-25T06:59:02;15.60;;;11.60;;
2850;SDS011;1433;49.976;8.342;2022-11-25T07:01:29;24.83;;;12.57;;
2850;SDS011;1433;49.976;8.342;2022-11-25T07:03:58;17.40;;;11.10;;
2850;SDS011;1433;49.976;8.342;2022-11-25T07:06:25;16.03;;;10.17;;
2850;SDS011;1433;49.976;8.342;2022-11-25T07:08:51;14.30;;;11.77;;
2850;SDS011;1433;49.976;8.342;2022-11-25T07:11:31;16.30;;;11.80;;
2850;SDS011;1433;49.976;8.342;2022-11-25T07:13:58;17.00;;;10.90;;
2850;SDS011;1433;49.976;8.342;2022-11-25T07:16:32;23.60;;;11.80;;
2850;SDS011;1433;49.976;8.342;2022-11-25T07:18:59;17.90;;;12.97;;
2850;SDS011;1433;49.976;8.342;2022-11-25T07:21:27;14.10;;;10.93;;
2850;SDS011;1433;49.976;8.342;2022-11-25T07:23:56;15.40;;;11.63;;
2850;SDS011;1433;49.976;8.342;2022-11-25T07:26:25;17.90;;;11.20;;
2850;SDS011;1433;49.976;8.342;2022-11-25T07:28:56;18.13;;;12.67;;
2850;SDS011;1433;49.976;8.342;2022-11-25T07:31:27;17.27;;;11.90;;
2850;SDS011;1433;49.976;8.342;2022-11-25T07:34:00;24.93;;;12.37;;
2850;SDS011;1433;49.976;8.342;2022-11-25T07:36:25;13.63;;;11.03;;
2850;SDS011;1433;49.976;8.342;2022-11-25T07:38:52;15.63;;;11.60;;
2850;SDS011;1433;49.976;8.342;2022-11-25T07:41:20;12.50;;;11.20;;
2850;SDS011;1433;49.976;8.342;2022-11-25T07:43:52;12.13;;;10.90;;
2850;SDS011;1433;49.976;8.342;2022-11-25T07:48:59;14.30;;;12.40;;
2850;SDS011;1433;49.976;8.342;2022-11-25T07:51:34;14.77;;;11.50;;
2850;SDS011;1433;49.976;8.342;2022-11-25T07:54:03;16.37;;;12.40;;
2850;SDS011;1433;49.976;8.342;2022-11-25T07:56:32;14.27;;;12.50;;
2850;SDS011;1433;49.976;8.342;2022-11-25T07:58:59;14.47;;;11.73;;
2850;SDS011;1433;49.976;8.342;2022-11-25T08:01:26;14.87;;;13.27;;
2850;SDS011;1433;49.976;8.342;2022-11-25T08:03:53;15.20;;;10.50;;
2850;SDS011;1433;49.976;8.342;2022-11-25T08:06:21;20.23;;;10.63;;
2850;SDS011;1433;49.976;8.342;2022-11-25T08:08:50;17.30;;;10.83;;
2850;SDS011;1433;49.976;8.342;2022-11-25T08:11:20;18.83;;;12.43;;
2850;SDS011;1433;49.976;8.342;2022-11-25T08:13:51;14.97;;;12.63;;
2850;SDS011;1433;49.976;8.342;2022-11-25T08:16:19;17.70;;;10.67;;
2850;SDS011;1433;49.976;8.342;2022-11-25T08:18:47;17.07;;;11.63;;
2850;SDS011;1433;49.976;8.342;2022-11-25T08:21:14;12.80;;;10.10;;
2850;SDS011;1433;49.976;8.342;2022-11-25T08:23:41;13.23;;;10.00;;
2850;SDS011;1433;49.976;8.342;2022-11-25T08:26:10;16.93;;;9.90;;
2850;SDS011;1433;49.976;8.342;2022-11-25T08:28:39;13.17;;;11.73;;
2850;SDS011;1433;49.976;8.342;2022-11-25T08:31:12;14.60;;;11.20;;
2850;SDS011;1433;49.976;8.342;2022-11-25T08:33:42;14.07;;;11.27;;
2850;SDS011;1433;49.976;8.342;2022-11-25T08:36:09;12.13;;;10.87;;
2850;SDS011;1433;49.976;8.342;2022-11-25T08:38:35;12.53;;;11.07;;
2850;SDS011;1433;49.976;8.342;2022-11-25T08:41:02;15.13;;;10.23;;
2850;SDS011;1433;49.976;8.342;2022-11-25T08:43:28;17.83;;;10.83;;
2850;SDS011;1433;49.976;8.342;2022-11-25T08:45:55;13.60;;;10.10;;
2850;SDS011;1433;49.976;8.342;2022-11-25T08:48:21;12.83;;;10.20;;
2850;SDS011;1433;49.976;8.342;2022-11-25T08:50:50;14.43;;;11.37;;
2850;SDS011;1433;49.976;8.342;2022-11-25T08:53:18;15.60;;;10.77;;
2850;SDS011;1433;49.976;8.342;2022-11-25T08:55:45;18.00;;;15.37;;
2850;SDS011;1433;49.976;8.342;2022-11-25T08:58:11;29.27;;;20.43;;
2850;SDS011;1433;49.976;8.342;2022-11-25T09:00:41;23.30;;;20.00;;
2850;SDS011;1433;49.976;8.342;2022-11-25T09:03:09;13.60;;;10.63;;
2850;SDS011;1433;49.976;8.342;2022-11-25T09:05:40;19.03;;;10.23;;
2850;SDS011;1433;49.976;8.342;2022-11-25T09:08:07;15.47;;;13.50;;
2850;SDS011;1433;49.976;8.342;2022-11-25T09:10:35;12.07;;;10.90;;
2850;SDS011;1433;49.976;8.342;2022-11-25T09:13:03;12.73;;;10.47;;
2850;SDS011;1433;49.976;8.342;2022-11-25T09:15:29;13.37;;;12.07;;
2850;SDS011;1433;49.976;8.342;2022-11-25T09:17:57;14.60;;;11.50;;
2850;SDS011;1433;49.976;8.342;2022-11-25T09:20:27;17.37;;;13.97;;
2850;SDS011;1433;49.976;8.342;2022-11-25T09:22:54;11.87;;;10.73;;
2850;SDS011;1433;49.976;8.342;2022-11-25T09:25:20;14.30;;;11.20;;
2850;SDS011;1433;49.976;8.342;2022-11-25T09:27:47;18.60;;;11.43;;
2850;SDS011;1433;49.976;8.342;2022-11-25T09:30:13;16.43;;;12.90;;
2850;SDS011;1433;49.976;8.342;2022-11-25T09:32:40;15.27;;;11.33;;
2850;SDS011;1433;49.976;8.342;2022-11-25T09:35:06;19.87;;;14.67;;
2850;SDS011;1433;49.976;8.342;2022-11-25T09:37:33;15.40;;;13.57;;
2850;SDS011;1433;49.976;8.342;2022-11-25T09:39:59;19.77;;;15.07;;
2850;SDS011;1433;49.976;8.342;2022-11-25T09:45:21;18.93;;;13.33;;
2850;SDS011;1433;49.976;8.342;2022-11-25T09:48:16;15.17;;;13.00;;
2850;SDS011;1433;49.976;8.342;2022-11-25T09:54:04;16.33;;;13.77;;
2850;SDS011;1433;49.976;8.342;2022-11-25T09:56:33;25.30;;;13.30;;
2850;SDS011;1433;49.976;8.342;2022-11-25T10:01:53;15.53;;;13.80;;
2850;SDS011;1433;49.976;8.342;2022-11-25T10:04:29;23.07;;;14.50;;
2850;SDS011;1433;49.976;8.342;2022-11-25T10:07:00;16.13;;;13.83;;
2850;SDS011;1433;49.976;8.342;2022-11-25T10:09:34;22.00;;;14.20;;
2850;SDS011;1433;49.976;8.342;2022-11-25T10:12:02;17.30;;;14.67;;
2850;SDS011;1433;49.976;8.342;2022-11-25T10:14:39;20.10;;;13.50;;
2850;SDS011;1433;49.976;8.342;2022-11-25T10:17:16;15.30;;;13.70;;
2850;SDS011;1433;49.976;8.342;2022-11-25T10:22:21;16.60;;;13.60;;
2850;SDS011;1433;49.976;8.342;2022-11-25T10:24:59;15.80;;;13.83;;
2850;SDS011;1433;49.976;8.342;2022-11-25T10:27:35;14.50;;;12.03;;
2850;SDS011;1433;49.976;8.342;2022-11-25T10:30:00;16.33;;;12.60;;
2850;SDS011;1433;49.976;8.342;2022-11-25T10:32:35;20.37;;;14.17;;
2850;SDS011;1433;49.976;8.342;2022-11-25T10:35:03;19.10;;;14.17;;
2850;SDS011;1433;49.976;8.342;2022-11-25T10:37:32;14.23;;;12.57;;
2850;SDS011;1433;49.976;8.342;2022-11-25T10:40:00;16.13;;;12.10;;
2850;SDS011;1433;49.976;8.342;2022-11-25T10:42:27;16.73;;;12.23;;
2850;SDS011;1433;49.976;8.342;2022-11-25T10:44:53;14.60;;;13.10;;
2850;SDS011;1433;49.976;8.342;2022-11-25T10:50:32;14.17;;;12.07;;
2850;SDS011;1433;49.976;8.342;2022-11-25T10:53:19;14.53;;;13.10;;
2850;SDS011;1433;49.976;8.342;2022-11-25T11:03:50;14.00;;;10.53;;
2850;SDS011;1433;49.976;8.342;2022-11-25T11:06:34;12.10;;;10.40;;
2850;SDS011;1433;49.976;8.342;2022-11-25T11:09:03;15.40;;;11.17;;
2850;SDS011;1433;49.976;8.342;2022-11-25T11:11:30;14.13;;;11.87;;
2850;SDS011;1433;49.976;8.342;2022-11-25T11:14:18;11.43;;;10.30;;
2850;SDS011;1433;49.976;8.342;2022-11-25T11:16:39;15.03;;;9.30;;
2850;SDS011;1433;49.976;8.342;2022-11-25T11:19:23;14.07;;;11.07;;
2850;SDS011;1433;49.976;8.342;2022-11-25T11:21:50;12.60;;;9.50;;
2850;SDS011;1433;49.976;8.342;2022-11-25T11:27:04;11.43;;;8.60;;
2850;SDS011;1433;49.976;8.342;2022-11-25T11:29:33;10.73;;;9.50;;
2850;SDS011;1433;49.976;8.342;2022-11-25T11:32:04;10.83;;;9.40;;
2850;SDS011;1433;49.976;8.342;2022-11-25T11:37:21;17.20;;;10.03;;
2850;SDS011;1433;49.976;8.342;2022-11-25T11:51:00;10.53;;;9.40;;
2850;SDS011;1433;49.976;8.342;2022-11-25T11:53:31;14.90;;;9.50;;
2850;SDS011;1433;49.976;8.342;2022-11-25T11:56:17;14.50;;;8.70;;
2850;SDS011;1433;49.976;8.342;2022-11-25T12:04:44;12.27;;;9.17;;
2850;SDS011;1433;49.976;8.342;2022-11-25T12:07:30;12.70;;;7.97;;
2850;SDS011;1433;49.976;8.342;2022-11-25T12:10:16;17.57;;;9.60;;
2850;SDS011;1433;49.976;8.342;2022-11-25T12:13:12;11.27;;;9.23;;
2850;SDS011;1433;49.976;8.342;2022-11-25T12:15:42;14.83;;;10.17;;
2850;SDS011;1433;49.976;8.342;2022-11-25T12:21:17;12.77;;;10.20;;
2850;SDS011;1433;49.976;8.342;2022-11-25T12:26:38;13.13;;;8.27;;
2850;SDS011;1433;49.976;8.342;2022-11-25T12:29:04;10.67;;;8.07;;
2850;SDS011;1433;49.976;8.342;2022-11-25T12:31:36;11.87;;;8.30;;
2850;SDS011;1433;49.976;8.342;2022-11-25T12:34:06;15.53;;;9.80;;
2850;SDS011;1433;49.976;8.342;2022-11-25T12:36:43;15.33;;;7.80;;
2850;SDS011;1433;49.976;8.342;2022-11-25T12:42:00;13.80;;;7.57;;
2850;SDS011;1433;49.976;8.342;2022-11-25T12:44:30;12.17;;;7.83;;
2850;SDS011;1433;49.976;8.342;2022-11-25T12:47:02;15.60;;;7.97;;
2850;SDS011;1433;49.976;8.342;2022-11-25T12:49:29;8.27;;;7.47;;
2850;SDS011;1433;49.976;8.342;2022-11-25T12:55:03;9.07;;;6.07;;
2850;SDS011;1433;49.976;8.342;2022-11-25T13:00:17;10.20;;;6.63;;
2850;SDS011;1433;49.976;8.342;2022-11-25T13:16:54;8.97;;;6.27;;
2850;SDS011;1433;49.976;8.342;2022-11-25T13:19:22;12.37;;;7.93;;
2850;SDS011;1433;49.976;8.342;2022-11-25T13:24:42;13.23;;;6.30;;
2850;SDS011;1433;49.976;8.342;2022-11-25T13:29:56;7.77;;;4.93;;
2850;SDS011;1433;49.976;8.342;2022-11-25T13:32:30;12.87;;;5.93;;
2850;SDS011;1433;49.976;8.342;2022-11-25T13:37:50;7.80;;;4.93;;
2850;SDS011;1433;49.976;8.342;2022-11-25T13:42:51;7.63;;;5.87;;
2850;SDS011;1433;49.976;8.342;2022-11-25T13:48:20;15.37;;;7.43;;
2850;SDS011;1433;49.976;8.342;2022-11-25T13:50:46;8.73;;;5.23;;
2850;SDS011;1433;49.976;8.342;2022-11-25T13:53:20;8.00;;;5.17;;
2850;SDS011;1433;49.976;8.342;2022-11-25T13:55:49;9.80;;;5.30;;
2850;SDS011;1433;49.976;8.342;2022-11-25T13:58:23;5.00;;;4.10;;
2850;SDS011;1433;49.976;8.342;2022-11-25T14:06:04;8.60;;;5.80;;
2850;SDS011;1433;49.976;8.342;2022-11-25T14:08:37;10.20;;;4.73;;
2850;SDS011;1433;49.976;8.342;2022-11-25T14:14:20;6.60;;;5.23;;
2850;SDS011;1433;49.976;8.342;2022-11-25T14:19:54;6.97;;;5.40;;
2850;SDS011;1433;49.976;8.342;2022-11-25T14:22:22;12.93;;;5.70;;
2850;SDS011;1433;49.976;8.342;2022-11-25T14:25:12;7.17;;;5.60;;
2850;SDS011;1433;49.976;8.342;2022-11-25T14:27:49;5.17;;;4.03;;
2850;SDS011;1433;49.976;8.342;2022-11-25T14:30:17;15.97;;;6.63;;
2850;SDS011;1433;49.976;8.342;2022-11-25T14:35:27;7.80;;;5.43;;
2850;SDS011;1433;49.976;8.342;2022-11-25T14:38:12;7.60;;;6.10;;
2850;SDS011;1433;49.976;8.342;2022-11-25T14:40:43;8.03;;;6.60;;
2850;SDS011;1433;49.976;8.342;2022-11-25T14:43:11;9.93;;;7.60;;
2850;SDS011;1433;49.976;8.342;2022-11-25T14:45:40;8.40;;;7.53;;
2850;SDS011;1433;49.976;8.342;2022-11-25T14:48:13;11.47;;;7.40;;
2850;SDS011;1433;49.976;8.342;2022-11-25T14:51:00;12.90;;;5.67;;
2850;SDS011;1433;49.976;8.342;2022-11-25T14:53:28;9.47;;;6.73;;
2850;SDS011;1433;49.976;8.342;2022-11-25T14:55:56;7.40;;;6.10;;
2850;SDS011;1433;49.976;8.342;2022-11-25T14:58:24;10.50;;;8.37;;
2850;SDS011;1433;49.976;8.342;2022-11-25T15:00:58;8.40;;;6.43;;
2850;SDS011;1433;49.976;8.342;2022-11-25T15:03:24;14.97;;;6.30;;
2850;SDS011;1433;49.976;8.342;2022-11-25T15:05:54;12.60;;;6.80;;
2850;SDS011;1433;49.976;8.342;2022-11-25T15:08:22;7.37;;;6.67;;
2850;SDS011;1433;49.976;8.342;2022-11-25T15:10:53;12.60;;;7.60;;
2850;SDS011;1433;49.976;8.342;2022-11-25T15:16:15;10.53;;;6.87;;
2850;SDS011;1433;49.976;8.342;2022-11-25T15:18:47;14.50;;;8.37;;
2850;SDS011;1433;49.976;8.342;2022-11-25T15:21:16;9.80;;;6.43;;
2850;SDS011;1433;49.976;8.342;2022-11-25T15:23:48;14.83;;;6.73;;
2850;SDS011;1433;49.976;8.342;2022-11-25T15:26:16;9.63;;;6.40;;
2850;SDS011;1433;49.976;8.342;2022-11-25T15:28:43;7.30;;;6.50;;
2850;SDS011;1433;49.976;8.342;2022-11-25T15:31:14;11.30;;;6.43;;
2850;SDS011;1433;49.976;8.342;2022-11-25T15:33:43;9.70;;;6.73;;
2850;SDS011;1433;49.976;8.342;2022-11-25T15:36:10;11.13;;;6.70;;
2850;SDS011;1433;49.976;8.342;2022-11-25T15:38:38;8.33;;;6.50;;
2850;SDS011;1433;49.976;8.342;2022-11-25T15:41:12;8.47;;;7.57;;
2850;SDS011;1433;49.976;8.342;2022-11-25T15:43:53;12.37;;;7.40;;
2850;SDS011;1433;49.976;8.342;2022-11-25T15:46:21;10.10;;;8.20;;
2850;SDS011;1433;49.976;8.342;2022-11-25T15:48:49;14.43;;;9.00;;
2850;SDS011;1433;49.976;8.342;2022-11-25T15:51:23;13.23;;;7.90;;
2850;SDS011;1433;49.976;8.342;2022-11-25T15:56:47;14.20;;;8.00;;
2850;SDS011;1433;49.976;8.342;2022-11-25T16:15:49;14.53;;;8.57;;
2850;SDS011;1433;49.976;8.342;2022-11-25T16:18:26;11.60;;;9.27;;
2850;SDS011;1433;49.976;8.342;2022-11-25T16:20:54;15.40;;;10.57;;
2850;SDS011;1433;49.976;8.342;2022-11-25T16:23:24;8.17;;;7.07;;
2850;SDS011;1433;49.976;8.342;2022-11-25T16:25:54;10.60;;;8.03;;
2850;SDS011;1433;49.976;8.342;2022-11-25T16:28:21;11.87;;;7.97;;
2850;SDS011;1433;49.976;8.342;2022-11-25T16:30:48;13.77;;;9.97;;
2850;SDS011;1433;49.976;8.342;2022-11-25T16:33:16;14.23;;;9.07;;
2850;SDS011;1433;49.976;8.342;2022-11-25T16:35:42;13.83;;;10.37;;
2850;SDS011;1433;49.976;8.342;2022-11-25T16:38:12;13.80;;;10.10;;
2850;SDS011;1433;49.976;8.342;2022-11-25T16:40:36;11.17;;;9.90;;
2850;SDS011;1433;49.976;8.342;2022-11-25T16:43:13;17.03;;;10.93;;
2850;SDS011;1433;49.976;8.342;2022-11-25T16:45:36;11.07;;;9.07;;
2850;SDS011;1433;49.976;8.342;2022-11-25T16:48:10;12.00;;;10.40;;
2850;SDS011;1433;49.976;8.342;2022-11-25T16:50:45;15.83;;;10.77;;
2850;SDS011;1433;49.976;8.342;2022-11-25T16:53:11;15.70;;;11.47;;
2850;SDS011;1433;49.976;8.342;2022-11-25T16:55:38;17.70;;;13.03;;
2850;SDS011;1433;49.976;8.342;2022-11-25T16:58:17;18.77;;;15.43;;
2850;SDS011;1433;49.976;8.342;2022-11-25T17:00:49;15.97;;;12.20;;
2850;SDS011;1433;49.976;8.342;2022-11-25T17:03:18;12.23;;;9.77;;
2850;SDS011;1433;49.976;8.342;2022-11-25T17:05:45;10.80;;;9.70;;
2850;SDS011;1433;49.976;8.342;2022-11-25T17:08:11;16.23;;;10.10;;
2850;SDS011;1433;49.976;8.342;2022-11-25T17:10:38;16.60;;;9.63;;
2850;SDS011;1433;49.976;8.342;2022-11-25T17:13:08;13.40;;;10.33;;
2850;SDS011;1433;49.976;8.342;2022-11-25T17:15:47;22.60;;;14.73;;
2850;SDS011;1433;49.976;8.342;2022-11-25T17:18:14;16.57;;;12.70;;
2850;SDS011;1433;49.976;8.342;2022-11-25T17:20:43;19.87;;;11.73;;
2850;SDS011;1433;49.976;8.342;2022-11-25T17:23:11;15.70;;;12.07;;
2850;SDS011;1433;49.976;8.342;2022-11-25T17:25:40;17.00;;;11.93;;
2850;SDS011;1433;49.976;8.342;2022-11-25T17:28:09;17.83;;;10.47;;